Time;durP1;ratioP1;P1;durP2;ratioP2;P2;SDS_P1;SDS_P2;PMS_P1;PMS_P2;Temp;Humidity;BMP_temperature;BMP_pressure;BME280_temperature;BME280_humidity;BME280_pressure;Samples;Min_cycle;Max_cycle;Signal;HPM_P1;HPM_P2
2023/08/08 00:00:39;;;;;;;3.33;2.63;;;12.70;99.90;;;;;;4844540;29;20656;-77
2023/08/08 00:03:04;;;;;;;3.87;2.43;;;12.70;99.90;;;;;;4845552;29;20185;-78
2023/08/08 00:05:30;;;;;;;2.80;2.50;;;12.70;99.90;;;;;;4844763;29;20433;-77
2023/08/08 00:07:56;;;;;;;2.70;2.27;;;12.70;99.90;;;;;;4844141;29;20195;-77
2023/08/08 00:10:21;;;;;;;2.83;2.37;;;12.70;99.90;;;;;;4844890;29;20255;-83
2023/08/08 00:12:47;;;;;;;4.10;2.60;;;12.80;99.90;;;;;;4844801;29;20223;-77
2023/08/08 00:15:12;;;;;;;2.70;2.50;;;12.70;99.90;;;;;;4843595;29;20239;-77
2023/08/08 00:17:38;;;;;;;2.40;2.20;;;12.70;99.90;;;;;;4844695;29;20197;-76
2023/08/08 00:20:04;;;;;;;4.63;2.10;;;12.60;99.90;;;;;;4844851;29;20196;-76
2023/08/08 00:22:30;;;;;;;2.50;2.30;;;12.70;99.90;;;;;;4843650;29;20200;-77
2023/08/08 00:24:55;;;;;;;3.87;2.63;;;12.70;99.90;;;;;;4844649;29;21022;-81
2023/08/08 00:27:21;;;;;;;5.93;2.77;;;12.70;99.90;;;;;;4843937;29;20188;-77
2023/08/08 00:29:47;;;;;;;8.57;3.27;;;12.60;99.90;;;;;;4844844;29;20214;-76
2023/08/08 00:32:13;;;;;;;3.17;2.07;;;12.60;99.90;;;;;;4845718;29;20181;-77
2023/08/08 00:34:38;;;;;;;4.67;2.30;;;12.50;99.90;;;;;;4844276;29;20218;-77
2023/08/08 00:37:04;;;;;;;3.30;2.73;;;12.40;99.90;;;;;;4828747;29;20460;-77
2023/08/08 00:39:29;;;;;;;2.60;2.10;;;12.40;99.90;;;;;;4845024;29;20189;-77
2023/08/08 00:41:55;;;;;;;7.53;3.07;;;12.30;99.90;;;;;;4844939;29;20189;-77
2023/08/08 00:44:20;;;;;;;3.47;2.17;;;12.20;99.90;;;;;;4844803;29;20192;-77
2023/08/08 00:46:46;;;;;;;6.20;2.80;;;12.10;99.90;;;;;;4843888;29;20284;-78
2023/08/08 00:49:12;;;;;;;3.53;3.10;;;12.10;99.90;;;;;;4844187;29;20185;-78
2023/08/08 00:51:38;;;;;;;5.07;3.07;;;12.00;99.90;;;;;;4844426;29;20195;-77
2023/08/08 00:54:04;;;;;;;2.97;2.60;;;12.00;99.90;;;;;;4844896;29;20217;-77
2023/08/08 00:56:30;;;;;;;6.07;2.95;;;11.90;99.90;;;;;;4844275;29;20177;-78
2023/08/08 00:58:56;;;;;;;9.07;2.90;;;11.90;99.90;;;;;;4844620;29;20272;-77
2023/08/08 01:01:21;;;;;;;3.20;2.80;;;12.00;99.90;;;;;;4844161;29;20851;-78
2023/08/08 01:03:47;;;;;;;5.07;2.50;;;12.00;99.90;;;;;;4844349;29;20203;-78
2023/08/08 01:06:29;;;;;;;5.20;2.73;;;12.00;99.90;;;;;;4845097;29;20191;-77
2023/08/08 01:09:12;;;;;;;3.75;3.10;;;12.00;99.90;;;;;;4844285;29;20411;-77
2023/08/08 01:11:38;;;;;;;5.97;2.47;;;12.00;99.90;;;;;;4844332;29;20181;-78
2023/08/08 01:14:07;;;;;;;7.53;2.90;;;12.00;99.90;;;;;;4844306;29;20216;-78
2023/08/08 01:16:33;;;;;;;4.80;3.10;;;12.00;99.90;;;;;;4844130;29;20551;-78
2023/08/08 01:18:59;;;;;;;4.80;2.70;;;11.90;99.90;;;;;;4844574;29;20414;-78
2023/08/08 01:21:28;;;;;;;6.72;3.10;;;11.90;99.90;;;;;;4844499;29;20429;-82
2023/08/08 01:24:00;;;;;;;6.07;2.70;;;11.90;99.90;;;;;;4844111;29;20200;-77
2023/08/08 01:26:27;;;;;;;3.00;2.50;;;11.80;99.90;;;;;;4844200;29;20183;-80
2023/08/08 01:28:54;;;;;;;3.70;2.72;;;11.80;99.90;;;;;;4844183;29;20572;-78
2023/08/08 01:31:20;;;;;;;7.03;2.80;;;11.80;99.90;;;;;;4844634;29;20177;-77
2023/08/08 01:33:46;;;;;;;6.43;2.88;;;11.70;99.90;;;;;;4843893;29;20289;-77
2023/08/08 01:36:28;;;;;;;2.65;2.45;;;11.80;99.90;;;;;;4844051;29;20662;-78
2023/08/08 01:39:02;;;;;;;8.55;3.03;;;11.70;99.90;;;;;;4844763;29;20185;-77
2023/08/08 01:41:28;;;;;;;6.25;2.95;;;11.70;99.90;;;;;;4843833;29;20188;-78
2023/08/08 01:43:54;;;;;;;3.20;2.55;;;11.70;99.90;;;;;;4844361;29;20531;-78
2023/08/08 01:46:20;;;;;;;10.88;3.13;;;11.80;99.90;;;;;;4844397;29;20207;-77
2023/08/08 01:48:46;;;;;;;5.38;3.72;;;12.00;99.90;;;;;;4844161;29;20189;-77
2023/08/08 01:51:12;;;;;;;3.87;3.07;;;11.90;99.90;;;;;;4844109;29;20562;-77
2023/08/08 01:53:38;;;;;;;4.90;2.73;;;12.00;99.90;;;;;;4843267;29;20481;-77
2023/08/08 01:56:03;;;;;;;4.20;3.07;;;12.00;99.90;;;;;;4844081;29;20189;-78
2023/08/08 01:58:29;;;;;;;7.13;3.67;;;12.20;99.90;;;;;;4844824;29;20193;-78
2023/08/08 02:00:54;;;;;;;4.00;3.13;;;12.30;99.90;;;;;;4847349;29;20185;-77
2023/08/08 02:03:20;;;;;;;4.53;3.43;;;12.20;99.90;;;;;;4847998;29;20193;-78
2023/08/08 02:05:45;;;;;;;6.43;4.40;;;12.20;99.90;;;;;;4847435;29;20193;-77
2023/08/08 02:08:12;;;;;;;5.07;3.07;;;12.30;99.90;;;;;;4847459;29;20275;-77
2023/08/08 02:10:38;;;;;;;10.15;3.80;;;12.30;99.90;;;;;;4846964;29;20230;-78
2023/08/08 02:13:04;;;;;;;4.90;3.33;;;12.30;99.90;;;;;;4847595;29;20189;-78
2023/08/08 02:15:29;;;;;;;6.27;2.57;;;12.30;99.90;;;;;;4846731;29;20629;-79
2023/08/08 02:17:55;;;;;;;10.77;3.33;;;12.40;99.90;;;;;;4846995;29;20521;-77
2023/08/08 02:20:21;;;;;;;7.90;3.17;;;12.30;99.90;;;;;;4847301;29;20231;-77
2023/08/08 02:22:46;;;;;;;8.60;2.90;;;12.30;99.90;;;;;;4846872;29;20195;-78
2023/08/08 02:25:12;;;;;;;8.13;3.10;;;12.20;99.90;;;;;;4847173;29;20241;-77
2023/08/08 02:27:38;;;;;;;4.80;2.97;;;12.30;99.90;;;;;;4846844;29;20193;-78
2023/08/08 02:30:04;;;;;;;6.40;2.90;;;12.20;99.90;;;;;;4846528;29;20192;-77
2023/08/08 02:32:29;;;;;;;3.33;2.53;;;12.20;99.90;;;;;;4846966;29;20193;-81
2023/08/08 02:34:55;;;;;;;8.67;3.13;;;12.10;99.90;;;;;;4847158;29;20239;-77
2023/08/08 02:37:21;;;;;;;6.83;2.60;;;12.00;99.90;;;;;;4846939;29;20641;-77
2023/08/08 02:39:46;;;;;;;7.37;2.43;;;11.90;99.90;;;;;;4846856;29;20552;-78
2023/08/08 02:42:12;;;;;;;4.23;3.10;;;11.80;99.90;;;;;;4846902;29;20181;-78
2023/08/08 02:44:37;;;;;;;4.17;3.30;;;11.80;99.90;;;;;;4846208;29;20192;-80
2023/08/08 02:47:03;;;;;;;7.97;2.83;;;11.80;99.90;;;;;;4846927;29;20221;-78
2023/08/08 02:49:29;;;;;;;4.70;2.97;;;11.80;99.90;;;;;;4846749;29;20602;-78
2023/08/08 02:51:55;;;;;;;7.77;3.13;;;11.70;99.90;;;;;;4846596;29;20426;-78
2023/08/08 02:54:20;;;;;;;7.30;2.90;;;11.70;99.90;;;;;;4846369;29;20970;-78
2023/08/08 02:56:46;;;;;;;4.43;2.63;;;11.60;99.90;;;;;;4846488;29;20192;-78
2023/08/08 02:59:11;;;;;;;7.07;3.00;;;11.50;99.90;;;;;;4846499;29;20185;-78
2023/08/08 03:01:39;;;;;;;4.93;2.93;;;11.50;99.90;;;;;;4846380;29;20272;-78
2023/08/08 03:04:05;;;;;;;9.52;3.00;;;11.50;99.90;;;;;;4845708;29;20192;-78
2023/08/08 03:06:31;;;;;;;6.73;2.53;;;11.60;99.90;;;;;;4846612;29;20317;-82
2023/08/08 03:08:57;;;;;;;7.23;2.53;;;11.60;99.90;;;;;;4846333;29;20449;-78
2023/08/08 03:11:23;;;;;;;4.03;2.53;;;11.50;99.90;;;;;;4845643;29;20422;-78
2023/08/08 03:13:48;;;;;;;6.90;3.57;;;11.40;99.90;;;;;;4846227;29;20216;-78
2023/08/08 03:16:14;;;;;;;4.40;3.23;;;11.30;99.90;;;;;;4846475;29;20557;-78
2023/08/08 03:18:39;;;;;;;9.73;2.70;;;11.30;99.90;;;;;;4845823;29;20241;-78
2023/08/08 03:21:05;;;;;;;4.30;2.70;;;11.30;99.90;;;;;;4845896;29;20707;-78
2023/08/08 03:23:31;;;;;;;4.03;2.80;;;11.30;99.90;;;;;;4846104;29;20644;-78
2023/08/08 03:25:56;;;;;;;6.82;3.10;;;11.20;99.90;;;;;;4845776;29;20244;-78
2023/08/08 03:28:22;;;;;;;4.23;3.03;;;11.20;99.90;;;;;;4846342;29;20548;-78
2023/08/08 03:30:48;;;;;;;12.37;3.60;;;11.20;99.90;;;;;;4845131;29;20252;-78
2023/08/08 03:33:14;;;;;;;4.90;3.25;;;11.40;99.90;;;;;;4846447;29;20229;-78
2023/08/08 03:35:40;;;;;;;8.77;3.27;;;11.50;99.90;;;;;;4845933;29;20232;-79
2023/08/08 03:38:06;;;;;;;7.40;2.83;;;11.40;99.90;;;;;;4845488;29;20576;-79
2023/08/08 03:40:31;;;;;;;4.30;3.33;;;11.40;99.90;;;;;;4845666;29;20216;-78
2023/08/08 03:42:57;;;;;;;9.57;3.53;;;11.40;99.90;;;;;;4845475;29;20185;-78
2023/08/08 03:45:23;;;;;;;4.20;2.77;;;11.30;99.90;;;;;;4845582;29;20201;-78
2023/08/08 03:47:48;;;;;;;7.67;3.80;;;11.50;99.90;;;;;;4845143;29;20224;-78
2023/08/08 03:50:14;;;;;;;5.23;3.27;;;11.50;99.90;;;;;;4845813;29;20193;-78
2023/08/08 03:52:39;;;;;;;4.80;3.57;;;11.40;99.90;;;;;;4845428;29;20189;-78
2023/08/08 03:55:05;;;;;;;6.03;3.20;;;11.40;99.90;;;;;;4845616;29;20662;-79
2023/08/08 03:57:31;;;;;;;4.97;2.80;;;11.30;99.90;;;;;;4845387;29;20204;-78
2023/08/08 03:59:57;;;;;;;9.40;3.60;;;11.30;99.90;;;;;;4845271;29;20272;-78
2023/08/08 04:02:22;;;;;;;5.53;2.73;;;11.20;99.90;;;;;;4845201;29;20269;-78
2023/08/08 04:04:48;;;;;;;6.30;3.30;;;11.10;99.90;;;;;;4845121;29;20191;-78
2023/08/08 04:07:13;;;;;;;5.67;3.07;;;11.20;99.90;;;;;;4845576;29;20550;-78
2023/08/08 04:09:39;;;;;;;14.90;3.20;;;11.20;99.90;;;;;;4845198;29;20189;-79
2023/08/08 04:12:05;;;;;;;10.00;4.07;;;11.20;99.90;;;;;;4845458;29;20192;-78
2023/08/08 04:14:30;;;;;;;8.07;3.83;;;11.30;99.90;;;;;;4844931;29;20224;-78
2023/08/08 04:16:56;;;;;;;6.30;3.13;;;11.20;99.90;;;;;;4844584;29;20281;-78
2023/08/08 04:19:23;;;;;;;6.13;3.90;;;11.20;99.90;;;;;;4844920;29;20257;-78
2023/08/08 04:21:48;;;;;;;8.50;3.40;;;11.30;99.90;;;;;;4844515;29;20642;-78
2023/08/08 04:24:14;;;;;;;5.10;2.77;;;11.30;99.90;;;;;;4844990;29;20235;-78
2023/08/08 04:26:39;;;;;;;6.97;3.50;;;11.40;99.90;;;;;;4844598;29;20670;-78
2023/08/08 04:29:06;;;;;;;10.90;4.40;;;11.40;99.90;;;;;;4845046;29;20298;-78
2023/08/08 04:31:31;;;;;;;12.25;5.55;;;11.50;99.90;;;;;;4844948;29;20189;-78
2023/08/08 04:34:00;;;;;;;7.37;3.90;;;11.70;99.90;;;;;;4844562;29;20699;-79
2023/08/08 04:36:26;;;;;;;9.87;4.37;;;11.90;99.90;;;;;;4844720;29;20283;-78
2023/08/08 04:38:52;;;;;;;8.43;4.20;;;11.90;99.90;;;;;;4844755;29;20414;-79
2023/08/08 04:41:17;;;;;;;9.63;4.00;;;12.00;99.90;;;;;;4844891;29;20930;-79
2023/08/08 04:43:43;;;;;;;12.13;4.10;;;12.20;99.90;;;;;;4844716;29;20247;-78
2023/08/08 04:46:09;;;;;;;11.67;4.43;;;12.20;99.90;;;;;;4844697;29;20279;-78
2023/08/08 04:48:37;;;;;;;7.05;4.28;;;12.30;99.90;;;;;;4844213;29;20610;-78
2023/08/08 04:51:04;;;;;;;10.27;3.93;;;12.30;99.90;;;;;;4844297;29;20245;-78
2023/08/08 04:53:29;;;;;;;9.70;4.23;;;12.40;99.90;;;;;;4844386;29;20414;-78
2023/08/08 04:55:55;;;;;;;6.83;5.23;;;12.50;99.90;;;;;;4844376;29;20452;-78
2023/08/08 04:58:20;;;;;;;13.50;4.80;;;12.60;99.90;;;;;;4844713;29;20218;-78
2023/08/08 05:00:46;;;;;;;10.63;4.77;;;12.70;99.90;;;;;;4844274;29;20253;-79
2023/08/08 05:03:12;;;;;;;13.47;4.63;;;12.70;99.90;;;;;;4844385;29;20189;-78
2023/08/08 05:05:37;;;;;;;8.10;4.80;;;12.90;99.90;;;;;;4844275;29;20276;-78
2023/08/08 05:08:03;;;;;;;12.93;3.83;;;13.00;99.90;;;;;;4844326;29;20275;-79
2023/08/08 05:10:30;;;;;;;11.03;4.57;;;13.10;99.90;;;;;;4844270;29;20181;-78
2023/08/08 05:12:57;;;;;;;11.47;4.33;;;13.00;99.90;;;;;;4844616;29;20232;-78
2023/08/08 05:15:22;;;;;;;15.27;4.57;;;13.10;99.90;;;;;;4844490;29;20489;-78
2023/08/08 05:17:48;;;;;;;6.77;3.73;;;13.10;99.90;;;;;;4843746;29;20449;-78
2023/08/08 05:20:13;;;;;;;5.50;3.57;;;13.20;99.90;;;;;;4844035;29;20562;-78
2023/08/08 05:22:39;;;;;;;4.33;3.93;;;13.20;99.90;;;;;;4844550;29;20189;-78
2023/08/08 05:25:05;;;;;;;10.30;4.10;;;13.20;99.90;;;;;;4843593;29;20331;-78
2023/08/08 05:27:31;;;;;;;4.40;3.33;;;13.30;99.90;;;;;;4844449;29;20189;-78
2023/08/08 05:29:57;;;;;;;12.90;4.47;;;13.30;99.90;;;;;;4844100;29;20421;-79
2023/08/08 05:32:22;;;;;;;13.30;4.93;;;13.50;99.90;;;;;;4844294;29;20234;-78
2023/08/08 05:34:49;;;;;;;7.30;3.77;;;13.60;99.90;;;;;;4846739;29;20228;-79
2023/08/08 05:37:15;;;;;;;7.27;4.03;;;13.50;99.90;;;;;;4847380;29;20196;-79
2023/08/08 05:39:40;;;;;;;8.73;3.60;;;13.60;99.90;;;;;;4847733;29;20520;-82
2023/08/08 05:42:06;;;;;;;6.93;3.80;;;13.50;99.90;;;;;;4847594;29;20192;-79
2023/08/08 05:44:32;;;;;;;6.90;4.20;;;13.60;99.90;;;;;;4847745;29;20665;-78
2023/08/08 05:46:57;;;;;;;11.10;3.70;;;13.70;99.90;;;;;;4847585;29;20215;-78
2023/08/08 05:49:23;;;;;;;10.93;4.63;;;13.80;99.90;;;;;;4847561;29;20223;-78
2023/08/08 05:51:48;;;;;;;7.33;4.40;;;13.90;99.90;;;;;;4830953;29;20196;-78
2023/08/08 05:54:14;;;;;;;9.50;4.43;;;13.80;99.90;;;;;;4847138;29;20223;-79
2023/08/08 05:56:39;;;;;;;9.50;4.30;;;13.90;99.90;;;;;;4847428;29;20666;-78
2023/08/08 05:59:05;;;;;;;6.77;3.60;;;14.00;99.90;;;;;;4846807;29;20211;-78
2023/08/08 06:01:32;;;;;;;11.43;3.53;;;14.10;99.90;;;;;;4847414;29;20193;-78
2023/08/08 06:04:00;;;;;;;9.37;3.70;;;14.20;99.90;;;;;;4846581;29;20199;-79
2023/08/08 06:06:27;;;;;;;5.93;3.00;;;14.30;99.90;;;;;;4846947;29;20437;-78
2023/08/08 06:08:52;;;;;;;10.47;3.87;;;14.30;99.90;;;;;;4847195;29;20421;-78
2023/08/08 06:11:18;;;;;;;8.20;2.90;;;14.30;99.90;;;;;;4847411;29;20487;-78
2023/08/08 06:13:44;;;;;;;7.80;3.67;;;14.30;99.90;;;;;;4846603;29;20577;-79
2023/08/08 06:16:09;;;;;;;4.63;2.87;;;14.30;99.90;;;;;;4847168;29;20197;-78
2023/08/08 06:18:35;;;;;;;11.50;3.90;;;14.40;99.90;;;;;;4847069;29;20185;-78
2023/08/08 06:21:01;;;;;;;9.73;4.17;;;14.40;99.90;;;;;;4846539;29;20184;-78
2023/08/08 06:23:26;;;;;;;6.10;3.10;;;14.30;99.90;;;;;;4846938;29;20185;-78
2023/08/08 06:25:52;;;;;;;6.53;3.13;;;14.50;99.90;;;;;;4830477;29;20508;-78
2023/08/08 06:28:18;;;;;;;4.70;2.80;;;14.60;99.90;;;;;;4846613;29;20503;-78
2023/08/08 06:30:43;;;;;;;6.60;3.17;;;14.60;99.90;;;;;;4846690;29;20258;-78
2023/08/08 06:33:09;;;;;;;9.67;2.57;;;14.60;99.90;;;;;;4846729;29;20185;-78
2023/08/08 06:35:35;;;;;;;8.20;2.43;;;14.60;99.90;;;;;;4846834;29;20208;-78
2023/08/08 06:38:00;;;;;;;6.13;3.13;;;14.60;99.90;;;;;;4846172;29;20221;-79
2023/08/08 06:40:27;;;;;;;7.27;3.03;;;14.70;99.90;;;;;;4846336;29;20254;-77
2023/08/08 06:42:52;;;;;;;7.47;3.50;;;14.70;99.90;;;;;;4845981;29;20185;-84
2023/08/08 06:45:18;;;;;;;13.67;3.10;;;14.80;99.90;;;;;;4844151;29;20434;-84
2023/08/08 06:47:45;;;;;;;6.90;2.70;;;14.90;99.90;;;;;;4845062;29;20200;-83
2023/08/08 06:50:10;;;;;;;5.17;3.00;;;14.80;99.90;;;;;;4845547;29;20426;-84
2023/08/08 06:52:36;;;;;;;12.23;3.30;;;14.80;99.90;;;;;;4828439;29;20441;-82
2023/08/08 06:55:02;;;;;;;7.40;2.90;;;14.90;99.90;;;;;;4813347;29;20571;-83
2023/08/08 06:57:29;;;;;;;6.37;2.93;;;14.90;99.90;;;;;;4845000;29;20197;-83
2023/08/08 06:59:55;;;;;;;7.43;3.10;;;14.90;99.90;;;;;;4845118;29;20214;-82
2023/08/08 07:02:21;;;;;;;4.97;3.00;;;14.90;99.90;;;;;;4828590;29;20505;-84
2023/08/08 07:04:46;;;;;;;8.83;3.00;;;15.10;99.90;;;;;;4844992;29;20239;-84
2023/08/08 07:07:12;;;;;;;8.50;2.90;;;15.20;99.90;;;;;;4828108;29;20200;-82
2023/08/08 07:09:37;;;;;;;9.00;3.43;;;15.30;99.90;;;;;;4845348;29;20184;-83
2023/08/08 07:12:04;;;;;;;5.47;3.47;;;15.30;99.90;;;;;;4828523;29;20222;-86
2023/08/08 07:14:29;;;;;;;8.60;3.63;;;15.40;99.90;;;;;;4828221;29;20277;-84
2023/08/08 07:16:55;;;;;;;7.40;3.10;;;15.40;99.90;;;;;;4827781;29;20931;-84
2023/08/08 07:19:21;;;;;;;9.03;3.57;;;15.50;99.90;;;;;;4844498;29;20287;-83
2023/08/08 07:21:47;;;;;;;6.47;3.70;;;15.40;99.90;;;;;;4844573;29;20487;-88
2023/08/08 07:24:12;;;;;;;6.07;3.13;;;15.50;99.90;;;;;;4844378;29;20571;-84
2023/08/08 07:26:39;;;;;;;6.60;3.77;;;15.60;99.90;;;;;;4844460;29;20177;-86
2023/08/08 07:29:05;;;;;;;10.07;3.73;;;15.70;99.90;;;;;;4844379;29;20204;-84
2023/08/08 07:31:32;;;;;;;17.73;5.60;;;15.60;99.90;;;;;;4844241;29;20430;-82
2023/08/08 07:33:57;;;;;;;7.70;3.87;;;15.70;99.90;;;;;;4827910;29;20568;-83
2023/08/08 07:36:23;;;;;;;12.20;3.60;;;15.80;99.90;;;;;;4844203;29;20525;-84
2023/08/08 07:38:49;;;;;;;6.20;3.60;;;15.80;99.90;;;;;;4844192;29;20426;-85
2023/08/08 07:41:14;;;;;;;6.67;3.30;;;15.80;99.90;;;;;;4844333;29;20576;-84
2023/08/08 07:43:40;;;;;;;4.97;3.33;;;15.90;99.90;;;;;;4844302;29;20649;-84
2023/08/08 07:46:06;;;;;;;8.73;3.80;;;15.90;99.90;;;;;;4844189;29;20275;-85
2023/08/08 07:48:31;;;;;;;9.80;4.63;;;16.00;99.90;;;;;;4843803;29;20189;-85
2023/08/08 07:50:57;;;;;;;8.30;3.63;;;16.10;99.90;;;;;;4843339;29;20280;-84
2023/08/08 07:53:22;;;;;;;10.67;3.97;;;16.10;99.90;;;;;;4844161;29;20188;-84
2023/08/08 07:55:48;;;;;;;6.20;3.30;;;16.20;99.90;;;;;;4827464;29;20246;-85
2023/08/08 07:58:14;;;;;;;5.83;3.83;;;16.20;99.90;;;;;;4843695;29;20185;-85
2023/08/08 08:00:39;;;;;;;6.23;4.00;;;16.30;99.90;;;;;;4844029;29;20195;-84
2023/08/08 08:03:05;;;;;;;10.20;4.13;;;16.50;99.90;;;;;;4843658;29;20215;-87
2023/08/08 08:05:31;;;;;;;10.67;4.10;;;16.50;99.90;;;;;;4844056;29;20192;-84
2023/08/08 08:07:57;;;;;;;11.07;4.50;;;16.50;99.90;;;;;;4843813;29;20400;-83
2023/08/08 08:10:22;;;;;;;4.40;3.70;;;16.60;99.90;;;;;;4827421;29;20438;-84
2023/08/08 08:12:48;;;;;;;10.93;4.10;;;16.70;99.90;;;;;;4844128;29;20193;-83
2023/08/08 08:15:13;;;;;;;7.13;3.57;;;16.90;99.90;;;;;;4843450;29;20213;-83
2023/08/08 08:17:39;;;;;;;15.10;4.47;;;17.10;99.90;;;;;;4827386;29;20188;-84
2023/08/08 08:20:10;;;;;;;6.07;3.77;;;17.30;99.90;;;;;;4843524;29;20189;-85
2023/08/08 08:22:37;;;;;;;7.43;3.67;;;17.30;99.90;;;;;;4827793;29;20193;-84
2023/08/08 08:25:03;;;;;;;7.70;3.50;;;17.50;99.90;;;;;;4826488;29;20485;-84
2023/08/08 08:27:28;;;;;;;7.23;4.00;;;17.60;99.90;;;;;;4843497;29;20426;-85
2023/08/08 08:29:54;;;;;;;6.27;3.50;;;17.60;99.90;;;;;;4843266;29;20422;-84
2023/08/08 08:32:19;;;;;;;6.30;3.50;;;17.70;99.90;;;;;;4843543;29;20189;-85
2023/08/08 08:34:45;;;;;;;8.43;3.43;;;17.50;99.90;;;;;;4843669;29;20408;-83
2023/08/08 08:37:11;;;;;;;5.83;3.90;;;17.20;99.90;;;;;;4844417;29;20197;-88
2023/08/08 08:39:36;;;;;;;13.33;3.90;;;17.20;99.90;;;;;;4827364;29;20521;-85
2023/08/08 08:42:04;;;;;;;11.07;4.20;;;17.20;99.90;;;;;;4843278;29;20216;-85
2023/08/08 08:44:31;;;;;;;6.70;3.97;;;17.20;99.90;;;;;;4828157;29;20720;-86
2023/08/08 08:47:01;;;;;;;14.40;4.57;;;17.30;99.90;;;;;;4843696;29;20545;-86
2023/08/08 08:49:29;;;;;;;10.37;3.67;;;17.40;99.90;;;;;;4827417;29;20918;-86
2023/08/08 08:51:56;;;;;;;6.13;3.17;;;17.30;99.90;;;;;;4843119;29;20474;-86
2023/08/08 08:54:22;;;;;;;8.33;4.27;;;17.40;99.90;;;;;;4827630;29;20465;-86
2023/08/08 08:56:48;;;;;;;7.27;3.53;;;17.40;99.90;;;;;;4843799;29;20426;-85
2023/08/08 08:59:14;;;;;;;5.50;3.10;;;17.40;99.90;;;;;;4843225;29;20769;-86
2023/08/08 09:01:39;;;;;;;7.63;3.73;;;17.50;99.90;;;;;;4843685;29;20200;-86
2023/08/08 09:04:07;;;;;;;7.20;3.77;;;17.50;99.90;;;;;;4827297;29;20203;-85
2023/08/08 09:06:33;;;;;;;9.43;3.37;;;17.50;99.90;;;;;;4843986;29;20196;-86
2023/08/08 09:08:59;;;;;;;5.50;2.87;;;17.70;99.90;;;;;;4845242;29;20429;-86
2023/08/08 09:11:24;;;;;;;6.90;3.60;;;17.80;99.90;;;;;;4846991;29;20918;-86
2023/08/08 09:13:51;;;;;;;6.23;2.90;;;17.70;99.90;;;;;;4815866;29;20212;-85
2023/08/08 09:16:17;;;;;;;2.90;2.60;;;17.70;99.90;;;;;;4847262;29;20219;-87
2023/08/08 09:18:42;;;;;;;7.17;3.10;;;17.70;99.90;;;;;;4843728;29;20437;-87
2023/08/08 09:21:08;;;;;;;5.97;2.93;;;17.70;99.90;;;;;;4844568;29;20445;-88
2023/08/08 09:23:33;;;;;;;12.10;3.80;;;17.80;99.90;;;;;;4846927;29;20638;-87
2023/08/08 09:25:59;;;;;;;5.33;2.03;;;18.10;99.90;;;;;;4846186;29;20256;-90
2023/08/08 09:28:25;;;;;;;9.53;2.17;;;18.20;99.90;;;;;;4847621;29;20191;-88
2023/08/08 09:30:51;;;;;;;6.97;3.00;;;18.30;99.90;;;;;;4846559;29;20242;-86
2023/08/08 09:33:17;;;;;;;3.20;2.20;;;18.30;99.90;;;;;;4845167;29;20927;-88
2023/08/08 09:35:43;;;;;;;7.30;2.53;;;18.30;99.90;;;;;;4846528;29;20228;-88
2023/08/08 09:38:09;;;;;;;3.00;2.10;;;18.30;99.90;;;;;;4830087;29;20842;-87
2023/08/08 09:40:35;;;;;;;7.00;2.63;;;18.20;99.90;;;;;;4828937;29;20197;-87
2023/08/08 09:43:00;;;;;;;5.43;2.63;;;18.40;99.90;;;;;;4846513;29;20452;-85
2023/08/08 09:45:26;;;;;;;7.33;2.70;;;18.70;99.90;;;;;;4830588;29;20245;-86
2023/08/08 09:47:52;;;;;;;6.10;2.57;;;18.70;99.90;;;;;;4845756;29;20224;-87
2023/08/08 09:50:19;;;;;;;3.73;2.30;;;18.70;99.90;;;;;;4829674;29;20196;-86
2023/08/08 09:52:48;;;;;;;3.47;2.50;;;18.50;99.90;;;;;;4846443;29;20460;-88
2023/08/08 09:55:15;;;;;;;6.07;2.90;;;18.40;99.90;;;;;;4845098;29;20943;-87
2023/08/08 09:57:41;;;;;;;8.57;2.93;;;18.50;99.90;;;;;;4831190;29;20441;-87
2023/08/08 10:00:15;;;;;;;6.30;2.50;;;18.80;99.90;;;;;;4834556;29;20421;-87
2023/08/08 10:02:43;;;;;;;9.50;2.70;;;19.00;99.90;;;;;;4832148;29;20441;-87
2023/08/08 10:05:10;;;;;;;5.00;2.67;;;19.10;99.90;;;;;;4846278;29;20461;-86
2023/08/08 10:07:36;;;;;;;3.00;2.40;;;18.90;99.90;;;;;;4845471;29;20414;-89
2023/08/08 10:10:01;;;;;;;5.10;2.57;;;18.50;99.90;;;;;;4829535;29;20496;-84
2023/08/08 10:12:27;;;;;;;10.90;2.60;;;18.30;99.90;;;;;;4846632;29;20185;-83
2023/08/08 10:14:53;;;;;;;4.33;2.37;;;18.30;99.90;;;;;;4844754;29;20231;-84
2023/08/08 10:17:19;;;;;;;4.83;1.80;;;18.40;99.90;;;;;;4828015;29;20200;-92
2023/08/08 10:19:55;;;;;;;6.97;2.13;;;18.40;99.90;;;;;;4827423;29;20671;-88
2023/08/08 10:22:24;;;;;;;3.23;1.83;;;18.40;99.90;;;;;;4827602;29;20501;-84
2023/08/08 10:24:56;;;;;;;4.73;1.93;;;18.60;99.90;;;;;;4819812;29;20479;-89
2023/08/08 10:27:39;;;;;;;5.63;2.70;;;18.70;99.90;;;;;;4792482;29;20410;-88
2023/08/08 10:30:10;;;;;;;4.83;2.13;;;18.80;99.90;;;;;;4809256;29;20473;-87
2023/08/08 10:32:48;;;;;;;9.57;3.43;;;19.00;99.90;;;;;;4797306;29;20900;-89
2023/08/08 10:35:14;;;;;;;6.90;1.80;;;19.00;99.90;;;;;;4824641;29;20547;-86
2023/08/08 10:37:40;;;;;;;6.93;2.20;;;19.00;99.90;;;;;;4811211;29;20436;-86
2023/08/08 10:40:11;;;;;;;7.60;1.83;;;19.00;99.90;;;;;;4826369;29;20406;-88
2023/08/08 10:42:45;;;;;;;7.00;1.87;;;19.20;99.90;;;;;;4827111;29;20413;-86
2023/08/08 10:45:13;;;;;;;2.70;1.57;;;19.20;99.90;;;;;;4826697;29;20469;-86
2023/08/08 10:47:39;;;;;;;1.87;1.60;;;19.20;99.90;;;;;;4826026;29;20580;-90
2023/08/08 10:50:11;;;;;;;6.57;2.77;;;18.90;99.90;;;;;;4827031;29;20511;-87
2023/08/08 10:52:54;;;;;;;6.00;1.80;;;18.90;99.90;;;;;;4827508;29;20454;-89
2023/08/08 10:55:20;;;;;;;10.43;2.40;;;18.70;99.90;;;;;;4826751;29;20501;-86
2023/08/08 10:57:57;;;;;;;4.73;2.27;;;18.80;99.90;;;;;;4827325;29;20439;-86
2023/08/08 11:00:25;;;;;;;7.23;2.03;;;18.70;99.90;;;;;;4826716;29;20401;-89
2023/08/08 11:02:51;;;;;;;3.07;2.07;;;18.70;99.90;;;;;;4827094;29;20431;-87
2023/08/08 11:05:17;;;;;;;10.53;2.70;;;18.80;99.90;;;;;;4827041;29;20405;-86
2023/08/08 11:07:43;;;;;;;4.40;2.00;;;18.90;99.90;;;;;;4826409;29;20410;-87
2023/08/08 11:10:10;;;;;;;2.60;1.67;;;18.80;99.90;;;;;;4826827;29;20436;-86
2023/08/08 11:12:35;;;;;;;3.97;2.10;;;18.70;99.90;;;;;;4827201;29;20402;-89
2023/08/08 11:15:01;;;;;;;4.07;2.37;;;18.60;99.90;;;;;;4826935;29;20553;-88
2023/08/08 11:17:27;;;;;;;4.80;1.60;;;18.60;99.90;;;;;;4826971;29;20607;-87
2023/08/08 11:19:52;;;;;;;7.30;1.87;;;18.70;99.90;;;;;;4810946;29;20495;-95
2023/08/08 11:22:21;;;;;;;3.63;2.37;;;19.10;99.90;;;;;;4826555;29;20186;-83
2023/08/08 11:24:46;;;;;;;2.97;1.57;;;19.30;99.90;;;;;;4834277;29;20264;-87
2023/08/08 11:27:12;;;;;;;5.20;1.90;;;19.40;99.90;;;;;;4844627;29;20483;-82
2023/08/08 11:29:37;;;;;;;6.37;2.17;;;19.60;99.90;;;;;;4845182;29;20280;-87
2023/08/08 11:32:04;;;;;;;4.90;2.03;;;19.80;99.90;;;;;;4844223;29;20598;-86
2023/08/08 11:34:31;;;;;;;2.43;1.70;;;19.70;99.90;;;;;;4844735;29;20218;-87
2023/08/08 11:36:59;;;;;;;4.17;1.50;;;19.80;99.90;;;;;;4845202;29;20426;-85
2023/08/08 11:39:25;;;;;;;3.97;1.53;;;20.00;99.90;;;;;;4844359;29;20385;-87
2023/08/08 11:41:52;;;;;;;3.03;2.20;;;19.90;99.90;;;;;;4844220;29;20815;-85
2023/08/08 11:44:18;;;;;;;4.20;1.83;;;19.90;99.90;;;;;;4844094;29;20437;-86
2023/08/08 11:46:46;;;;;;;6.40;1.80;;;20.00;99.90;;;;;;4844646;29;20524;-86
2023/08/08 11:49:15;;;;;;;2.53;1.50;;;20.40;99.90;;;;;;4843996;29;20189;-81
2023/08/08 11:51:43;;;;;;;5.43;1.50;;;20.30;99.90;;;;;;4844598;29;20462;-84
2023/08/08 11:54:08;;;;;;;2.70;1.60;;;19.60;99.90;;;;;;4844579;29;20560;-86
2023/08/08 11:56:36;;;;;;;6.23;2.13;;;19.40;99.90;;;;;;4844370;29;20430;-84
2023/08/08 11:59:02;;;;;;;3.73;1.83;;;19.40;99.90;;;;;;4846374;29;20216;-83
2023/08/08 12:01:30;;;;;;;8.17;2.37;;;19.40;99.90;;;;;;4845825;29;20463;-83
2023/08/08 12:03:56;;;;;;;7.67;2.00;;;19.40;99.90;;;;;;4827836;29;20420;-85
2023/08/08 12:06:22;;;;;;;4.00;1.80;;;19.40;99.90;;;;;;4843276;29;20422;-88
2023/08/08 12:08:48;;;;;;;4.00;1.67;;;19.40;99.90;;;;;;4844371;29;20181;-88
2023/08/08 12:11:15;;;;;;;2.90;1.40;;;19.40;99.90;;;;;;4843906;29;20465;-87
2023/08/08 12:13:42;;;;;;;4.00;1.70;;;19.40;99.90;;;;;;4844482;29;20606;-84
2023/08/08 12:16:13;;;;;;;9.43;1.83;;;19.20;99.90;;;;;;4843938;29;20784;-84
2023/08/08 12:18:40;;;;;;;4.07;2.07;;;19.20;99.90;;;;;;4844206;29;20395;-83
2023/08/08 12:21:09;;;;;;;6.33;1.60;;;19.10;99.90;;;;;;4827475;29;20554;-83
2023/08/08 12:23:36;;;;;;;4.10;1.80;;;19.30;99.90;;;;;;4844100;29;20445;-83
2023/08/08 12:26:07;;;;;;;9.33;2.33;;;19.60;99.90;;;;;;4843479;29;20496;-84
2023/08/08 12:28:33;;;;;;;11.77;1.90;;;20.20;99.90;;;;;;4843703;29;20408;-84
2023/08/08 12:30:58;;;;;;;8.60;1.77;;;20.50;99.90;;;;;;4844158;29;20886;-88
2023/08/08 12:33:24;;;;;;;4.20;1.87;;;20.30;99.90;;;;;;4844175;29;20188;-88
2023/08/08 12:35:50;;;;;;;4.43;2.07;;;20.10;99.90;;;;;;4844295;29;20469;-86
2023/08/08 12:38:15;;;;;;;3.00;1.97;;;19.90;99.90;;;;;;4843590;29;20197;-87
2023/08/08 12:40:41;;;;;;;3.47;1.50;;;19.90;99.90;;;;;;4843934;29;20185;-86